createdAt,value
2019-04-28T00:04:18.362Z,100189.97
2019-04-28T00:09:23.135Z,100193.23
2019-04-28T00:14:27.091Z,100177.02
2019-04-28T00:19:31.171Z,100188.48
2019-04-28T00:24:42.211Z,100191.03
2019-04-28T00:29:46.399Z,100191.81
2019-04-28T00:34:51.156Z,100202.30
2019-04-28T00:39:55.191Z,100207.68
2019-04-28T00:44:59.009Z,100201.09
2019-04-28T00:50:02.966Z,100211.37
2019-04-28T00:55:06.841Z,100214.41
2019-04-28T01:00:11.557Z,100214.41
2019-04-28T01:05:15.556Z,100220.30
2019-04-28T01:10:21.061Z,100208.81
2019-04-28T01:15:39.658Z,100217.73
2019-04-28T01:20:43.848Z,100217.73
2019-04-28T01:25:47.675Z,100214.80
2019-04-28T01:31:13.278Z,100224.00
2019-04-28T01:36:17.143Z,100228.04
2019-04-28T01:41:20.922Z,100235.12
2019-04-28T01:46:24.681Z,100224.64
2019-04-28T01:51:30.370Z,100231.64
2019-04-28T01:56:33.957Z,100232.98
2019-04-28T02:01:37.789Z,100235.68
2019-04-28T02:06:41.544Z,100235.19
2019-04-28T02:11:45.318Z,100235.19
2019-04-28T02:16:50.385Z,100240.67
2019-04-28T02:22:10.584Z,100250.48
2019-04-28T02:27:14.421Z,100247.67
2019-04-28T02:32:21.246Z,100247.67
2019-04-28T02:37:23.854Z,100246.20
2019-04-28T02:42:30.657Z,100246.20
2019-04-28T02:47:34.170Z,100240.95
2019-04-28T02:52:56.297Z,100246.33
2019-04-28T02:58:01.409Z,100246.33
2019-04-28T03:03:05.501Z,100240.45
2019-04-28T03:08:11.109Z,100240.45
2019-04-28T03:13:14.836Z,100241.94
2019-04-28T03:18:21.210Z,100238.12
2019-04-28T03:23:24.142Z,100238.12
2019-04-28T03:28:35.794Z,100241.45
2019-04-28T03:33:47.329Z,100248.66
2019-04-28T03:38:45.266Z,100258.08
2019-04-28T03:43:51.277Z,100269.84
2019-04-28T03:48:54.518Z,100281.45
2019-04-28T03:54:00.639Z,100295.05
2019-04-28T03:59:03.783Z,100298.72
2019-04-28T04:04:07.541Z,100305.59
2019-04-28T04:09:11.755Z,100311.81
2019-04-28T04:14:34.505Z,100311.81
2019-04-28T04:19:40.772Z,100290.04
2019-04-28T04:24:43.823Z,100290.05
2019-04-28T04:29:47.600Z,100322.31
2019-04-28T04:34:51.375Z,100322.31
2019-04-28T04:39:55.145Z,100338.13
2019-04-28T04:45:00.523Z,100340.18
2019-04-28T04:50:04.766Z,100347.22
2019-04-28T04:55:11.041Z,100353.33
2019-04-28T05:00:20.913Z,100361.50
2019-04-28T05:05:30.339Z,100377.02
2019-04-28T05:10:34.119Z,100376.61
2019-04-28T05:15:37.893Z,100381.98
2019-04-28T05:20:41.668Z,100376.69
2019-04-28T05:25:45.440Z,100387.45
2019-04-28T05:30:50.266Z,100387.45
2019-04-28T05:35:54.507Z,100407.59
2019-04-28T05:41:02.321Z,100395.05
2019-04-28T05:46:03.949Z,100399.20
2019-04-28T05:51:09.472Z,100401.42
2019-04-28T05:56:20.353Z,100392.44
2019-04-28T06:01:46.480Z,100384.39
2019-04-28T06:06:52.167Z,100387.92
2019-04-28T06:11:55.919Z,100386.33
2019-04-28T06:17:00.514Z,100385.89
2019-04-28T06:22:04.434Z,100384.72
2019-04-28T06:27:08.193Z,100387.56
2019-04-28T06:32:11.975Z,100387.56
2019-04-28T06:37:15.755Z,100396.75
2019-04-28T06:42:19.566Z,100416.00
2019-04-28T06:47:23.303Z,100425.02
2019-04-28T06:52:27.068Z,100431.77
2019-04-28T06:57:30.804Z,100444.73
2019-04-28T07:02:34.623Z,100444.73
2019-04-28T07:07:38.398Z,100482.39
2019-04-28T07:12:42.238Z,100463.98
2019-04-28T07:17:46.007Z,100463.02
2019-04-28T07:22:49.795Z,100469.41
2019-04-28T07:27:53.578Z,100474.62
2019-04-28T07:32:57.692Z,100475.39
2019-04-28T07:38:01.475Z,100475.39
2019-04-28T07:43:05.244Z,100488.77
2019-04-28T07:48:17.190Z,100485.62
2019-04-28T07:53:29.075Z,100494.44
2019-04-28T07:58:32.844Z,100503.96
2019-04-28T08:03:48.845Z,100503.96
2019-04-28T08:08:42.185Z,100521.36
2019-04-28T08:13:46.074Z,100528.92
2019-04-28T08:18:49.859Z,100536.09
2019-04-28T08:23:53.635Z,100536.09
2019-04-28T08:28:57.586Z,100547.00
2019-04-28T08:34:04.109Z,100547.85
2019-04-28T08:39:07.956Z,100549.77
2019-04-28T08:44:11.827Z,100549.77
2019-04-28T08:49:15.695Z,100563.11
2019-04-28T08:54:19.477Z,100558.04
2019-04-28T08:59:23.352Z,100563.32
2019-04-28T09:04:27.167Z,100569.00
2019-04-28T09:09:30.921Z,100569.00
2019-04-28T09:14:34.776Z,100577.37
2019-04-28T09:19:38.571Z,100577.37
2019-04-28T09:24:42.413Z,100573.80
2019-04-28T09:29:46.216Z,100580.05
2019-04-28T09:34:50.048Z,100578.28
2019-04-28T09:39:59.226Z,100578.28
2019-04-28T09:45:36.543Z,100563.47
2019-04-28T09:50:40.292Z,100558.37
2019-04-28T09:55:44.095Z,100558.37
2019-04-28T10:00:47.963Z,100558.86
2019-04-28T10:05:51.745Z,100552.98
2019-04-28T10:10:55.555Z,100548.34
2019-04-28T10:15:59.341Z,100558.75
2019-04-28T10:21:03.149Z,100556.08
2019-04-28T10:26:07.108Z,100556.08
2019-04-28T10:31:13.313Z,100561.56
2019-04-28T10:36:16.981Z,100544.44
2019-04-28T10:41:36.591Z,100562.66
2019-04-28T10:46:40.460Z,100561.34
2019-04-28T10:51:44.355Z,100569.40
2019-04-28T10:56:48.119Z,100569.40
2019-04-28T11:01:51.873Z,100589.80
2019-04-28T11:06:55.901Z,100586.85
2019-04-28T11:12:00.129Z,100576.58
2019-04-28T11:17:03.911Z,100575.54
2019-04-28T11:22:07.694Z,100559.51
2019-04-28T11:27:11.684Z,100568.35
2019-04-28T11:32:16.677Z,100568.35
2019-04-28T11:37:20.583Z,100571.30
2019-04-28T11:42:24.350Z,100574.27
2019-04-28T11:47:28.156Z,100574.27
2019-04-28T11:52:32.232Z,100567.55
2019-04-28T11:57:36.046Z,100565.47
2019-04-28T12:02:39.824Z,100566.18
2019-04-28T12:07:43.639Z,100568.16
2019-04-28T12:13:03.407Z,100570.48
2019-04-28T12:18:25.044Z,100570.48
2019-04-28T12:28:45.453Z,100569.89
2019-04-28T12:33:49.283Z,100567.92
2019-04-28T12:38:53.077Z,100569.89
2019-04-28T12:43:56.890Z,100569.89
2019-04-28T12:49:04.143Z,100568.44
2019-04-28T12:54:09.615Z,100564.06
2019-04-28T12:59:18.713Z,100554.64
2019-04-28T13:04:50.231Z,100554.64
2019-04-28T13:09:54.088Z,100552.55
2019-04-28T13:14:57.934Z,100549.59
2019-04-28T13:20:01.748Z,100550.09
2019-04-28T13:25:06.699Z,100550.09
2019-04-28T13:30:10.491Z,100544.98
2019-04-28T13:35:14.315Z,100538.98
2019-04-28T13:40:24.778Z,100537.85
2019-04-28T13:45:28.750Z,100536.04
2019-04-28T13:50:37.082Z,100529.08
2019-04-28T13:56:04.122Z,100530.30
2019-04-28T14:01:25.592Z,100530.30
2019-04-28T14:06:30.608Z,100532.73
2019-04-28T14:11:34.424Z,100532.50
2019-04-28T14:16:38.277Z,100532.50
2019-04-28T14:21:42.087Z,100530.66
2019-04-28T14:26:46.071Z,100532.39
2019-04-28T14:31:49.868Z,100542.52
2019-04-28T14:36:53.736Z,100540.09
2019-04-28T14:41:57.550Z,100547.67
2019-04-28T14:47:01.331Z,100545.72
2019-04-28T14:52:05.140Z,100551.94
2019-04-28T14:57:08.929Z,100533.00
2019-04-28T15:02:28.903Z,100549.64
2019-04-28T15:07:55.925Z,100543.87
2019-04-28T15:13:00.153Z,100543.87
2019-04-28T15:18:04.082Z,100545.22
2019-04-28T15:23:07.880Z,100545.22
2019-04-28T15:28:11.746Z,100548.52
2019-04-28T15:33:15.674Z,100541.80
2019-04-28T15:38:19.547Z,100547.91
2019-04-28T15:43:23.400Z,100547.40
2019-04-28T15:48:27.456Z,100552.41
2019-04-28T15:53:32.396Z,100560.63
2019-04-28T15:58:37.400Z,100549.26
2019-04-28T16:03:41.209Z,100576.61
2019-04-28T16:08:44.979Z,100576.61
2019-04-28T16:13:48.772Z,100548.03
2019-04-28T16:18:52.672Z,100548.03
2019-04-28T16:23:56.459Z,100558.22
2019-04-28T16:29:00.264Z,100558.22
2019-04-28T16:34:04.067Z,100553.26
2019-04-28T16:39:08.139Z,100556.30
2019-04-28T16:44:11.964Z,100558.87
2019-04-28T16:49:15.776Z,100560.19
2019-04-28T16:54:19.551Z,100560.19
2019-04-28T16:59:49.751Z,100569.76
2019-04-28T17:04:53.535Z,100576.59
2019-04-28T17:09:57.311Z,100576.59
2019-04-28T17:15:01.126Z,100584.78
2019-04-28T17:20:05.454Z,100588.91
2019-04-28T17:25:09.264Z,100592.34
2019-04-28T17:30:13.635Z,100595.30
2019-04-28T17:35:17.712Z,100597.39
2019-04-28T17:40:22.135Z,100598.22
2019-04-28T17:45:26.174Z,100598.22
2019-04-28T17:50:31.722Z,100603.49
2019-04-28T17:55:35.595Z,100613.39
2019-04-28T18:00:57.546Z,100616.94
2019-04-28T18:06:18.160Z,100625.37
2019-04-28T18:11:18.716Z,100625.37
2019-04-28T18:16:50.386Z,100620.95
2019-04-28T18:21:54.240Z,100620.95
2019-04-28T18:26:58.127Z,100649.91
2019-04-28T18:32:27.006Z,100647.75
2019-04-28T18:37:49.783Z,100647.75
2019-04-28T18:43:08.898Z,100655.94
2019-04-28T18:48:12.733Z,100670.59
2019-04-28T18:53:16.489Z,100678.73
2019-04-28T18:58:20.262Z,100678.73
2019-04-28T19:03:24.120Z,100687.86
2019-04-28T19:08:49.354Z,100696.54
2019-04-28T19:13:52.314Z,100695.56
2019-04-28T19:18:58.701Z,100704.14
2019-04-28T19:24:02.517Z,100708.39
2019-04-28T19:29:06.379Z,100711.08
2019-04-28T19:34:10.196Z,100712.30
2019-04-28T19:39:14.040Z,100714.05
2019-04-28T19:44:18.022Z,100714.05
2019-04-28T19:49:21.980Z,100715.17
2019-04-28T19:54:29.800Z,100715.17
2019-04-28T19:59:50.928Z,100727.16
2019-04-28T20:04:54.819Z,100732.53
2019-04-28T20:09:58.637Z,100730.32
2019-04-28T20:15:02.597Z,100735.83
2019-04-28T20:20:06.485Z,100735.83
2019-04-28T20:25:10.606Z,100729.47
2019-04-28T20:30:14.379Z,100728.98
2019-04-28T20:35:22.503Z,100729.00
2019-04-28T20:40:35.470Z,100722.50
2019-04-28T20:45:39.332Z,100734.61
2019-04-28T20:50:43.132Z,100738.02
2019-04-28T20:55:46.999Z,100744.39
2019-04-28T21:00:50.824Z,100740.72
2019-04-28T21:05:54.583Z,100722.33
2019-04-28T21:10:58.376Z,100722.33
2019-04-28T21:16:02.161Z,100738.02
2019-04-28T21:21:06.027Z,100734.23
2019-04-28T21:26:09.796Z,100736.08
2019-04-28T21:31:13.672Z,100736.19
2019-04-28T21:36:17.450Z,100723.88
2019-04-28T21:41:21.294Z,100731.21
2019-04-28T21:46:35.646Z,100741.48
2019-04-28T21:51:39.444Z,100741.48
2019-04-28T21:56:43.242Z,100724.70
2019-04-28T22:01:47.397Z,100724.70
2019-04-28T22:06:51.184Z,100754.56
2019-04-28T22:11:55.075Z,100754.44
2019-04-28T22:16:58.862Z,100754.44
2019-04-28T22:22:02.675Z,100757.00
2019-04-28T22:27:07.323Z,100767.39
2019-04-28T22:32:11.216Z,100767.39
2019-04-28T22:37:15.122Z,100768.13
2019-04-28T22:42:18.909Z,100767.77
2019-04-28T22:47:22.760Z,100770.45
2019-04-28T22:52:26.770Z,100770.81
2019-04-28T22:57:43.475Z,100770.81
2019-04-28T23:02:47.349Z,100773.05
2019-04-28T23:07:51.573Z,100773.05
2019-04-28T23:12:55.401Z,100769.11
2019-04-28T23:17:59.259Z,100784.05
2019-04-28T23:23:05.086Z,100779.03
2019-04-28T23:28:08.847Z,100774.76
2019-04-28T23:33:12.668Z,100774.76
2019-04-28T23:38:16.541Z,100777.94
2019-04-28T23:43:21.303Z,100774.85
2019-04-28T23:48:25.229Z,100779.77
2019-04-28T23:53:46.818Z,100776.20
2019-04-28T23:58:50.681Z,100756.88
